Gold Hill, North Carolina
Current Conditions -  °F | °C
As of 7:15 AM on Saturday 20 Dec 2014 (Local Time) from KVUJ Reporting Station
Overcast Overcast  
Wind Chill: 37°   Ceiling: 9500
Heat Index: 40°   Visibility: 10mi
Dew Point: 33°   Wind: 5mph
Humidity: 74%   Direction: 40°NE
Pressure: 30.27"   Gusts: NA
Location:  35.52°N, 80.34°W
Report Text: KVUJ 201215Z AUTO 04004KT 10SM SCT060 OVC095 05/00 A3027 RMK AO2 T00450003
Loading
Personal Weather Stations






























Interactive Weather Map New forecast layout! Learn more

10-Day Weather Forecast

Advertisements
Track Severe Weather on mobile